sensor_id;sensor_type;location;lat;lon;timestamp;P1;durP1;ratioP1;P2;durP2;ratioP2
13477;SDS011;12598;62.382;17.344;2023-08-24T00:00:13;6.25;;;3.88;;
13477;SDS011;12598;62.382;17.344;2023-08-24T00:01:15;5.40;;;3.58;;
13477;SDS011;12598;62.382;17.344;2023-08-24T00:02:18;5.22;;;3.80;;
13477;SDS011;12598;62.382;17.344;2023-08-24T00:03:20;4.78;;;3.85;;
13477;SDS011;12598;62.382;17.344;2023-08-24T00:04:24;4.63;;;4.07;;
13477;SDS011;12598;62.382;17.344;2023-08-24T00:05:25;5.45;;;3.50;;
13477;SDS011;12598;62.382;17.344;2023-08-24T00:06:27;3.65;;;3.25;;
13477;SDS011;12598;62.382;17.344;2023-08-24T00:07:29;5.78;;;4.03;;
13477;SDS011;12598;62.382;17.344;2023-08-24T00:08:31;4.30;;;3.42;;
13477;SDS011;12598;62.382;17.344;2023-08-24T00:09:33;5.70;;;3.35;;
13477;SDS011;12598;62.382;17.344;2023-08-24T00:10:35;4.38;;;3.38;;
13477;SDS011;12598;62.382;17.344;2023-08-24T00:11:38;7.85;;;3.40;;
13477;SDS011;12598;62.382;17.344;2023-08-24T00:12:41;4.63;;;3.65;;
13477;SDS011;12598;62.382;17.344;2023-08-24T00:13:43;3.80;;;3.50;;
13477;SDS011;12598;62.382;17.344;2023-08-24T00:14:50;3.85;;;3.10;;
13477;SDS011;12598;62.382;17.344;2023-08-24T00:15:53;4.53;;;3.63;;
13477;SDS011;12598;62.382;17.344;2023-08-24T00:16:55;4.95;;;3.28;;
13477;SDS011;12598;62.382;17.344;2023-08-24T00:17:57;4.70;;;3.05;;
13477;SDS011;12598;62.382;17.344;2023-08-24T00:18:59;3.35;;;3.03;;
13477;SDS011;12598;62.382;17.344;2023-08-24T00:20:01;3.63;;;2.72;;
13477;SDS011;12598;62.382;17.344;2023-08-24T00:21:06;4.53;;;2.92;;
13477;SDS011;12598;62.382;17.344;2023-08-24T00:22:09;4.00;;;3.42;;
13477;SDS011;12598;62.382;17.344;2023-08-24T00:23:11;3.95;;;3.05;;
13477;SDS011;12598;62.382;17.344;2023-08-24T00:24:12;3.47;;;2.83;;
13477;SDS011;12598;62.382;17.344;2023-08-24T00:25:14;3.90;;;2.80;;
13477;SDS011;12598;62.382;17.344;2023-08-24T00:26:17;3.17;;;2.80;;
13477;SDS011;12598;62.382;17.344;2023-08-24T00:27:19;3.60;;;2.40;;
13477;SDS011;12598;62.382;17.344;2023-08-24T00:28:21;3.17;;;2.92;;
13477;SDS011;12598;62.382;17.344;2023-08-24T00:29:23;4.18;;;3.30;;
13477;SDS011;12598;62.382;17.344;2023-08-24T00:30:25;3.28;;;2.40;;
13477;SDS011;12598;62.382;17.344;2023-08-24T00:31:27;3.00;;;2.65;;
13477;SDS011;12598;62.382;17.344;2023-08-24T00:32:28;3.17;;;2.88;;
13477;SDS011;12598;62.382;17.344;2023-08-24T00:33:30;4.80;;;2.90;;
13477;SDS011;12598;62.382;17.344;2023-08-24T00:34:32;3.08;;;2.80;;
13477;SDS011;12598;62.382;17.344;2023-08-24T00:35:34;4.30;;;2.88;;
13477;SDS011;12598;62.382;17.344;2023-08-24T00:36:36;3.55;;;2.88;;
13477;SDS011;12598;62.382;17.344;2023-08-24T00:37:39;5.70;;;2.90;;
13477;SDS011;12598;62.382;17.344;2023-08-24T00:38:41;3.55;;;2.50;;
13477;SDS011;12598;62.382;17.344;2023-08-24T00:39:44;3.65;;;2.88;;
13477;SDS011;12598;62.382;17.344;2023-08-24T00:40:46;3.63;;;2.50;;
13477;SDS011;12598;62.382;17.344;2023-08-24T00:41:48;5.30;;;2.33;;
13477;SDS011;12598;62.382;17.344;2023-08-24T00:42:50;3.50;;;2.50;;
13477;SDS011;12598;62.382;17.344;2023-08-24T00:43:52;2.20;;;2.00;;
13477;SDS011;12598;62.382;17.344;2023-08-24T00:44:55;2.70;;;2.28;;
13477;SDS011;12598;62.382;17.344;2023-08-24T00:45:59;3.03;;;2.42;;
13477;SDS011;12598;62.382;17.344;2023-08-24T00:47:03;2.65;;;2.45;;
13477;SDS011;12598;62.382;17.344;2023-08-24T00:48:06;2.88;;;2.38;;
13477;SDS011;12598;62.382;17.344;2023-08-24T00:49:08;3.70;;;2.30;;
13477;SDS011;12598;62.382;17.344;2023-08-24T00:50:10;2.90;;;2.00;;
13477;SDS011;12598;62.382;17.344;2023-08-24T00:51:14;3.40;;;2.20;;
13477;SDS011;12598;62.382;17.344;2023-08-24T00:52:16;3.13;;;2.30;;
13477;SDS011;12598;62.382;17.344;2023-08-24T00:53:19;3.03;;;2.40;;
13477;SDS011;12598;62.382;17.344;2023-08-24T00:54:25;4.28;;;2.22;;
13477;SDS011;12598;62.382;17.344;2023-08-24T00:55:27;4.20;;;2.65;;
13477;SDS011;12598;62.382;17.344;2023-08-24T00:56:29;3.72;;;2.50;;
13477;SDS011;12598;62.382;17.344;2023-08-24T00:57:32;2.60;;;2.40;;
13477;SDS011;12598;62.382;17.344;2023-08-24T00:58:34;4.07;;;1.88;;
13477;SDS011;12598;62.382;17.344;2023-08-24T00:59:36;3.05;;;2.42;;
13477;SDS011;12598;62.382;17.344;2023-08-24T01:00:38;2.88;;;2.50;;
13477;SDS011;12598;62.382;17.344;2023-08-24T01:01:40;2.88;;;2.35;;
13477;SDS011;12598;62.382;17.344;2023-08-24T01:02:46;2.40;;;2.20;;
13477;SDS011;12598;62.382;17.344;2023-08-24T01:03:48;3.55;;;2.65;;
13477;SDS011;12598;62.382;17.344;2023-08-24T01:04:50;3.25;;;2.63;;
13477;SDS011;12598;62.382;17.344;2023-08-24T01:05:52;3.35;;;2.38;;
13477;SDS011;12598;62.382;17.344;2023-08-24T01:06:54;2.60;;;1.98;;
13477;SDS011;12598;62.382;17.344;2023-08-24T01:07:58;4.50;;;2.50;;
13477;SDS011;12598;62.382;17.344;2023-08-24T01:09:00;2.80;;;2.53;;
13477;SDS011;12598;62.382;17.344;2023-08-24T01:10:05;2.92;;;2.53;;
13477;SDS011;12598;62.382;17.344;2023-08-24T01:15:27;4.35;;;2.53;;
13477;SDS011;12598;62.382;17.344;2023-08-24T01:16:37;3.67;;;2.22;;
13477;SDS011;12598;62.382;17.344;2023-08-24T01:17:43;3.55;;;2.50;;
13477;SDS011;12598;62.382;17.344;2023-08-24T01:18:45;4.03;;;2.17;;
13477;SDS011;12598;62.382;17.344;2023-08-24T01:19:51;3.58;;;2.15;;
13477;SDS011;12598;62.382;17.344;2023-08-24T01:20:53;2.63;;;2.42;;
13477;SDS011;12598;62.382;17.344;2023-08-24T01:21:58;4.32;;;2.65;;
13477;SDS011;12598;62.382;17.344;2023-08-24T01:23:09;2.45;;;2.25;;
13477;SDS011;12598;62.382;17.344;2023-08-24T01:24:30;2.72;;;2.20;;
13477;SDS011;12598;62.382;17.344;2023-08-24T01:26:02;3.00;;;2.10;;
13477;SDS011;12598;62.382;17.344;2023-08-24T01:27:00;2.35;;;2.15;;
13477;SDS011;12598;62.382;17.344;2023-08-24T01:28:03;3.38;;;2.58;;
13477;SDS011;12598;62.382;17.344;2023-08-24T01:29:07;2.70;;;2.10;;
13477;SDS011;12598;62.382;17.344;2023-08-24T01:30:10;4.65;;;2.58;;
13477;SDS011;12598;62.382;17.344;2023-08-24T01:31:13;3.40;;;2.22;;
13477;SDS011;12598;62.382;17.344;2023-08-24T01:32:17;3.05;;;2.00;;
13477;SDS011;12598;62.382;17.344;2023-08-24T01:33:19;3.00;;;2.10;;
13477;SDS011;12598;62.382;17.344;2023-08-24T01:34:20;2.65;;;2.17;;
13477;SDS011;12598;62.382;17.344;2023-08-24T01:35:25;3.72;;;2.00;;
13477;SDS011;12598;62.382;17.344;2023-08-24T01:36:27;5.40;;;1.90;;
13477;SDS011;12598;62.382;17.344;2023-08-24T01:37:29;3.10;;;2.00;;
13477;SDS011;12598;62.382;17.344;2023-08-24T01:38:31;2.58;;;1.65;;
13477;SDS011;12598;62.382;17.344;2023-08-24T01:39:37;3.58;;;2.42;;
13477;SDS011;12598;62.382;17.344;2023-08-24T01:41:53;2.75;;;2.35;;
13477;SDS011;12598;62.382;17.344;2023-08-24T01:43:03;2.70;;;1.90;;
13477;SDS011;12598;62.382;17.344;2023-08-24T01:44:09;2.38;;;1.90;;
13477;SDS011;12598;62.382;17.344;2023-08-24T01:45:13;2.40;;;2.00;;
13477;SDS011;12598;62.382;17.344;2023-08-24T01:46:19;2.60;;;2.40;;
13477;SDS011;12598;62.382;17.344;2023-08-24T01:47:23;2.17;;;1.98;;
13477;SDS011;12598;62.382;17.344;2023-08-24T01:48:26;1.92;;;1.65;;
13477;SDS011;12598;62.382;17.344;2023-08-24T01:49:28;3.85;;;2.20;;
13477;SDS011;12598;62.382;17.344;2023-08-24T01:50:31;2.30;;;2.10;;
13477;SDS011;12598;62.382;17.344;2023-08-24T01:51:34;2.78;;;2.20;;
13477;SDS011;12598;62.382;17.344;2023-08-24T01:52:37;3.90;;;1.83;;
13477;SDS011;12598;62.382;17.344;2023-08-24T01:53:39;2.40;;;1.90;;
13477;SDS011;12598;62.382;17.344;2023-08-24T01:54:42;2.33;;;1.90;;
13477;SDS011;12598;62.382;17.344;2023-08-24T01:55:45;2.65;;;1.60;;
13477;SDS011;12598;62.382;17.344;2023-08-24T01:56:48;3.78;;;2.00;;
13477;SDS011;12598;62.382;17.344;2023-08-24T01:57:50;1.92;;;1.70;;
13477;SDS011;12598;62.382;17.344;2023-08-24T01:58:52;1.95;;;1.80;;
13477;SDS011;12598;62.382;17.344;2023-08-24T01:59:54;4.55;;;2.00;;
13477;SDS011;12598;62.382;17.344;2023-08-24T02:00:56;2.25;;;2.05;;
13477;SDS011;12598;62.382;17.344;2023-08-24T02:01:58;3.20;;;2.13;;
13477;SDS011;12598;62.382;17.344;2023-08-24T02:02:59;1.92;;;1.83;;
13477;SDS011;12598;62.382;17.344;2023-08-24T02:04:02;4.40;;;1.95;;
13477;SDS011;12598;62.382;17.344;2023-08-24T02:05:04;6.05;;;1.98;;
13477;SDS011;12598;62.382;17.344;2023-08-24T02:06:06;2.00;;;1.80;;
13477;SDS011;12598;62.382;17.344;2023-08-24T02:07:08;2.53;;;2.10;;
13477;SDS011;12598;62.382;17.344;2023-08-24T02:08:10;3.13;;;2.50;;
13477;SDS011;12598;62.382;17.344;2023-08-24T02:09:12;2.28;;;1.92;;
13477;SDS011;12598;62.382;17.344;2023-08-24T02:10:14;3.08;;;2.17;;
13477;SDS011;12598;62.382;17.344;2023-08-24T02:11:16;2.72;;;2.00;;
13477;SDS011;12598;62.382;17.344;2023-08-24T02:12:19;2.47;;;2.28;;
13477;SDS011;12598;62.382;17.344;2023-08-24T02:13:21;2.90;;;1.92;;
13477;SDS011;12598;62.382;17.344;2023-08-24T02:14:23;2.25;;;2.05;;
13477;SDS011;12598;62.382;17.344;2023-08-24T02:15:25;2.55;;;2.15;;
13477;SDS011;12598;62.382;17.344;2023-08-24T02:16:26;2.25;;;2.03;;
13477;SDS011;12598;62.382;17.344;2023-08-24T02:17:28;4.28;;;2.63;;
13477;SDS011;12598;62.382;17.344;2023-08-24T02:18:30;3.17;;;2.25;;
13477;SDS011;12598;62.382;17.344;2023-08-24T02:19:32;3.42;;;2.25;;
13477;SDS011;12598;62.382;17.344;2023-08-24T02:20:35;4.25;;;2.50;;
13477;SDS011;12598;62.382;17.344;2023-08-24T02:21:37;2.95;;;2.20;;
13477;SDS011;12598;62.382;17.344;2023-08-24T02:22:39;2.67;;;2.47;;
13477;SDS011;12598;62.382;17.344;2023-08-24T02:23:42;2.55;;;1.90;;
13477;SDS011;12598;62.382;17.344;2023-08-24T02:24:43;3.60;;;1.70;;
13477;SDS011;12598;62.382;17.344;2023-08-24T02:25:45;2.28;;;1.95;;
13477;SDS011;12598;62.382;17.344;2023-08-24T02:26:47;2.58;;;1.98;;
13477;SDS011;12598;62.382;17.344;2023-08-24T02:27:49;2.75;;;2.08;;
13477;SDS011;12598;62.382;17.344;2023-08-24T02:28:54;2.25;;;2.05;;
13477;SDS011;12598;62.382;17.344;2023-08-24T02:29:58;2.55;;;2.30;;
13477;SDS011;12598;62.382;17.344;2023-08-24T02:31:01;2.80;;;2.50;;
13477;SDS011;12598;62.382;17.344;2023-08-24T02:32:04;3.58;;;2.40;;
13477;SDS011;12598;62.382;17.344;2023-08-24T02:33:06;3.35;;;2.13;;
13477;SDS011;12598;62.382;17.344;2023-08-24T02:34:09;4.15;;;1.70;;
13477;SDS011;12598;62.382;17.344;2023-08-24T02:35:11;3.15;;;2.30;;
13477;SDS011;12598;62.382;17.344;2023-08-24T02:36:13;2.22;;;2.00;;
13477;SDS011;12598;62.382;17.344;2023-08-24T02:37:14;2.75;;;2.10;;
13477;SDS011;12598;62.382;17.344;2023-08-24T02:38:16;2.97;;;2.35;;
13477;SDS011;12598;62.382;17.344;2023-08-24T02:39:18;2.42;;;1.92;;
13477;SDS011;12598;62.382;17.344;2023-08-24T02:40:20;2.53;;;2.10;;
13477;SDS011;12598;62.382;17.344;2023-08-24T02:41:22;2.50;;;2.05;;
13477;SDS011;12598;62.382;17.344;2023-08-24T02:42:24;2.80;;;2.08;;
13477;SDS011;12598;62.382;17.344;2023-08-24T02:43:26;4.55;;;2.22;;
13477;SDS011;12598;62.382;17.344;2023-08-24T02:44:28;4.18;;;2.15;;
13477;SDS011;12598;62.382;17.344;2023-08-24T02:45:30;2.38;;;2.15;;
13477;SDS011;12598;62.382;17.344;2023-08-24T02:46:32;4.55;;;2.40;;
13477;SDS011;12598;62.382;17.344;2023-08-24T02:47:35;2.40;;;2.20;;
13477;SDS011;12598;62.382;17.344;2023-08-24T02:48:38;3.28;;;2.25;;
13477;SDS011;12598;62.382;17.344;2023-08-24T02:49:40;3.08;;;2.42;;
13477;SDS011;12598;62.382;17.344;2023-08-24T02:50:45;2.20;;;2.00;;
13477;SDS011;12598;62.382;17.344;2023-08-24T02:51:48;3.50;;;2.28;;
13477;SDS011;12598;62.382;17.344;2023-08-24T02:52:51;2.90;;;2.10;;
13477;SDS011;12598;62.382;17.344;2023-08-24T02:53:53;2.83;;;2.30;;
13477;SDS011;12598;62.382;17.344;2023-08-24T02:54:55;2.97;;;2.15;;
13477;SDS011;12598;62.382;17.344;2023-08-24T02:55:57;2.45;;;2.25;;
13477;SDS011;12598;62.382;17.344;2023-08-24T02:56:59;3.72;;;2.63;;
13477;SDS011;12598;62.382;17.344;2023-08-24T02:58:01;2.65;;;2.45;;
13477;SDS011;12598;62.382;17.344;2023-08-24T02:59:03;2.30;;;2.10;;
13477;SDS011;12598;62.382;17.344;2023-08-24T03:00:05;3.00;;;2.28;;
13477;SDS011;12598;62.382;17.344;2023-08-24T03:01:08;2.20;;;2.00;;
13477;SDS011;12598;62.382;17.344;2023-08-24T03:02:10;2.45;;;2.15;;
13477;SDS011;12598;62.382;17.344;2023-08-24T03:03:15;2.70;;;2.13;;
13477;SDS011;12598;62.382;17.344;2023-08-24T03:04:18;2.40;;;2.20;;
13477;SDS011;12598;62.382;17.344;2023-08-24T03:05:21;2.28;;;2.08;;
13477;SDS011;12598;62.382;17.344;2023-08-24T03:06:23;2.60;;;2.40;;
13477;SDS011;12598;62.382;17.344;2023-08-24T03:07:26;2.53;;;2.10;;
13477;SDS011;12598;62.382;17.344;2023-08-24T03:08:28;3.03;;;2.08;;
13477;SDS011;12598;62.382;17.344;2023-08-24T03:09:32;2.60;;;1.95;;
13477;SDS011;12598;62.382;17.344;2023-08-24T03:10:35;2.88;;;2.47;;
13477;SDS011;12598;62.382;17.344;2023-08-24T03:11:37;2.33;;;2.13;;
13477;SDS011;12598;62.382;17.344;2023-08-24T03:12:39;2.90;;;1.98;;
13477;SDS011;12598;62.382;17.344;2023-08-24T03:13:41;3.08;;;2.15;;
13477;SDS011;12598;62.382;17.344;2023-08-24T03:14:43;3.53;;;2.33;;
13477;SDS011;12598;62.382;17.344;2023-08-24T03:15:45;3.88;;;2.50;;
13477;SDS011;12598;62.382;17.344;2023-08-24T03:16:47;2.90;;;2.08;;
13477;SDS011;12598;62.382;17.344;2023-08-24T03:17:50;2.50;;;2.17;;
13477;SDS011;12598;62.382;17.344;2023-08-24T03:18:54;2.20;;;2.00;;
13477;SDS011;12598;62.382;17.344;2023-08-24T03:19:56;3.05;;;2.03;;
13477;SDS011;12598;62.382;17.344;2023-08-24T03:20:58;2.30;;;2.10;;
13477;SDS011;12598;62.382;17.344;2023-08-24T03:22:00;4.70;;;2.10;;
13477;SDS011;12598;62.382;17.344;2023-08-24T03:23:02;1.73;;;1.60;;
13477;SDS011;12598;62.382;17.344;2023-08-24T03:24:05;2.03;;;1.80;;
13477;SDS011;12598;62.382;17.344;2023-08-24T03:25:07;3.60;;;2.00;;
13477;SDS011;12598;62.382;17.344;2023-08-24T03:26:09;3.05;;;2.17;;
13477;SDS011;12598;62.382;17.344;2023-08-24T03:27:11;2.95;;;2.20;;
13477;SDS011;12598;62.382;17.344;2023-08-24T03:28:13;2.20;;;2.00;;
13477;SDS011;12598;62.382;17.344;2023-08-24T03:29:15;2.42;;;2.05;;
13477;SDS011;12598;62.382;17.344;2023-08-24T03:30:17;3.13;;;2.15;;
13477;SDS011;12598;62.382;17.344;2023-08-24T03:31:19;2.45;;;2.25;;
13477;SDS011;12598;62.382;17.344;2023-08-24T03:32:21;2.30;;;2.13;;
13477;SDS011;12598;62.382;17.344;2023-08-24T03:33:22;3.17;;;2.10;;
13477;SDS011;12598;62.382;17.344;2023-08-24T03:34:24;2.90;;;2.30;;
13477;SDS011;12598;62.382;17.344;2023-08-24T03:35:29;2.47;;;2.28;;
13477;SDS011;12598;62.382;17.344;2023-08-24T03:36:33;2.85;;;2.05;;
13477;SDS011;12598;62.382;17.344;2023-08-24T03:37:35;4.63;;;2.65;;
13477;SDS011;12598;62.382;17.344;2023-08-24T03:38:41;2.45;;;2.05;;
13477;SDS011;12598;62.382;17.344;2023-08-24T03:39:43;3.15;;;2.25;;
13477;SDS011;12598;62.382;17.344;2023-08-24T03:40:45;2.60;;;2.40;;
13477;SDS011;12598;62.382;17.344;2023-08-24T03:41:47;2.20;;;2.00;;
13477;SDS011;12598;62.382;17.344;2023-08-24T03:42:49;2.88;;;2.58;;
13477;SDS011;12598;62.382;17.344;2023-08-24T03:43:51;2.33;;;2.13;;
13477;SDS011;12598;62.382;17.344;2023-08-24T03:44:53;2.65;;;2.45;;
13477;SDS011;12598;62.382;17.344;2023-08-24T03:45:55;2.97;;;2.30;;
13477;SDS011;12598;62.382;17.344;2023-08-24T03:46:57;2.70;;;2.17;;
13477;SDS011;12598;62.382;17.344;2023-08-24T03:47:59;2.72;;;2.50;;
13477;SDS011;12598;62.382;17.344;2023-08-24T03:49:01;2.85;;;2.40;;
13477;SDS011;12598;62.382;17.344;2023-08-24T03:50:03;2.20;;;2.00;;
13477;SDS011;12598;62.382;17.344;2023-08-24T03:51:05;2.03;;;1.90;;
13477;SDS011;12598;62.382;17.344;2023-08-24T03:52:07;4.70;;;2.15;;
13477;SDS011;12598;62.382;17.344;2023-08-24T03:53:09;2.53;;;2.25;;
13477;SDS011;12598;62.382;17.344;2023-08-24T03:54:11;2.60;;;2.33;;
13477;SDS011;12598;62.382;17.344;2023-08-24T03:55:13;2.58;;;2.38;;
13477;SDS011;12598;62.382;17.344;2023-08-24T03:56:14;2.30;;;2.10;;
13477;SDS011;12598;62.382;17.344;2023-08-24T03:57:16;2.22;;;2.05;;
13477;SDS011;12598;62.382;17.344;2023-08-24T03:58:18;2.65;;;2.20;;
13477;SDS011;12598;62.382;17.344;2023-08-24T03:59:20;2.28;;;2.08;;
13477;SDS011;12598;62.382;17.344;2023-08-24T04:00:23;2.10;;;2.00;;
13477;SDS011;12598;62.382;17.344;2023-08-24T04:01:24;3.60;;;2.05;;
13477;SDS011;12598;62.382;17.344;2023-08-24T04:02:26;2.33;;;2.13;;
13477;SDS011;12598;62.382;17.344;2023-08-24T04:03:28;2.40;;;2.20;;
13477;SDS011;12598;62.382;17.344;2023-08-24T04:04:30;2.10;;;1.88;;
13477;SDS011;12598;62.382;17.344;2023-08-24T04:05:32;2.53;;;2.33;;
13477;SDS011;12598;62.382;17.344;2023-08-24T04:06:34;1.90;;;1.75;;
13477;SDS011;12598;62.382;17.344;2023-08-24T04:07:37;4.60;;;2.20;;
13477;SDS011;12598;62.382;17.344;2023-08-24T04:08:41;3.17;;;2.30;;
13477;SDS011;12598;62.382;17.344;2023-08-24T04:09:43;3.30;;;2.08;;
13477;SDS011;12598;62.382;17.344;2023-08-24T04:10:46;2.25;;;1.98;;
13477;SDS011;12598;62.382;17.344;2023-08-24T04:11:48;2.20;;;2.00;;
13477;SDS011;12598;62.382;17.344;2023-08-24T04:12:50;2.70;;;2.13;;
13477;SDS011;12598;62.382;17.344;2023-08-24T04:13:54;2.83;;;2.50;;
13477;SDS011;12598;62.382;17.344;2023-08-24T04:14:56;2.42;;;1.92;;
13477;SDS011;12598;62.382;17.344;2023-08-24T04:15:59;2.10;;;1.90;;
13477;SDS011;12598;62.382;17.344;2023-08-24T04:17:00;3.42;;;1.90;;
13477;SDS011;12598;62.382;17.344;2023-08-24T04:18:02;2.00;;;1.80;;
13477;SDS011;12598;62.382;17.344;2023-08-24T04:19:05;2.40;;;2.10;;
13477;SDS011;12598;62.382;17.344;2023-08-24T04:20:07;2.53;;;1.90;;
13477;SDS011;12598;62.382;17.344;2023-08-24T04:21:09;2.88;;;1.90;;
13477;SDS011;12598;62.382;17.344;2023-08-24T04:22:11;2.25;;;1.83;;
13477;SDS011;12598;62.382;17.344;2023-08-24T04:23:13;3.35;;;2.03;;
13477;SDS011;12598;62.382;17.344;2023-08-24T04:24:15;2.85;;;2.17;;
13477;SDS011;12598;62.382;17.344;2023-08-24T04:25:19;2.08;;;1.88;;
13477;SDS011;12598;62.382;17.344;2023-08-24T04:26:21;2.33;;;2.10;;
13477;SDS011;12598;62.382;17.344;2023-08-24T04:27:23;4.13;;;2.20;;
13477;SDS011;12598;62.382;17.344;2023-08-24T04:28:25;2.65;;;1.90;;
13477;SDS011;12598;62.382;17.344;2023-08-24T04:29:27;2.17;;;1.92;;
13477;SDS011;12598;62.382;17.344;2023-08-24T04:30:29;2.72;;;2.20;;
13477;SDS011;12598;62.382;17.344;2023-08-24T04:31:31;2.75;;;2.05;;
13477;SDS011;12598;62.382;17.344;2023-08-24T04:32:33;3.75;;;2.15;;
13477;SDS011;12598;62.382;17.344;2023-08-24T04:33:35;3.25;;;2.22;;
13477;SDS011;12598;62.382;17.344;2023-08-24T04:34:37;2.20;;;2.00;;
13477;SDS011;12598;62.382;17.344;2023-08-24T04:35:38;2.95;;;2.38;;
13477;SDS011;12598;62.382;17.344;2023-08-24T04:36:40;3.05;;;1.88;;
13477;SDS011;12598;62.382;17.344;2023-08-24T04:37:42;2.55;;;2.05;;
13477;SDS011;12598;62.382;17.344;2023-08-24T04:38:44;3.35;;;2.00;;
13477;SDS011;12598;62.382;17.344;2023-08-24T04:39:50;3.00;;;2.30;;
13477;SDS011;12598;62.382;17.344;2023-08-24T04:40:52;2.70;;;1.77;;
13477;SDS011;12598;62.382;17.344;2023-08-24T04:41:55;1.83;;;1.73;;
13477;SDS011;12598;62.382;17.344;2023-08-24T04:42:57;3.45;;;2.20;;
13477;SDS011;12598;62.382;17.344;2023-08-24T04:43:59;3.15;;;1.92;;
13477;SDS011;12598;62.382;17.344;2023-08-24T04:45:01;2.33;;;2.13;;
13477;SDS011;12598;62.382;17.344;2023-08-24T04:46:03;3.90;;;2.20;;
13477;SDS011;12598;62.382;17.344;2023-08-24T04:47:05;2.30;;;1.88;;
13477;SDS011;12598;62.382;17.344;2023-08-24T04:48:07;2.58;;;2.03;;
13477;SDS011;12598;62.382;17.344;2023-08-24T04:49:09;3.53;;;2.17;;
13477;SDS011;12598;62.382;17.344;2023-08-24T04:50:11;2.13;;;1.90;;
13477;SDS011;12598;62.382;17.344;2023-08-24T04:51:13;3.50;;;2.63;;
13477;SDS011;12598;62.382;17.344;2023-08-24T04:52:15;1.85;;;1.70;;
13477;SDS011;12598;62.382;17.344;2023-08-24T04:53:17;3.10;;;2.22;;
13477;SDS011;12598;62.382;17.344;2023-08-24T04:54:20;2.42;;;2.22;;
13477;SDS011;12598;62.382;17.344;2023-08-24T04:55:23;2.08;;;1.88;;
13477;SDS011;12598;62.382;17.344;2023-08-24T04:56:25;2.45;;;2.25;;
13477;SDS011;12598;62.382;17.344;2023-08-24T04:57:26;2.55;;;2.00;;
13477;SDS011;12598;62.382;17.344;2023-08-24T04:58:28;3.00;;;2.13;;
13477;SDS011;12598;62.382;17.344;2023-08-24T04:59:30;2.40;;;2.20;;
13477;SDS011;12598;62.382;17.344;2023-08-24T05:00:32;3.00;;;2.70;;
13477;SDS011;12598;62.382;17.344;2023-08-24T05:01:35;2.40;;;2.20;;
13477;SDS011;12598;62.382;17.344;2023-08-24T05:02:36;2.60;;;2.10;;
13477;SDS011;12598;62.382;17.344;2023-08-24T05:03:38;3.33;;;2.40;;
13477;SDS011;12598;62.382;17.344;2023-08-24T05:04:40;2.17;;;1.98;;
13477;SDS011;12598;62.382;17.344;2023-08-24T05:05:42;2.85;;;2.00;;
13477;SDS011;12598;62.382;17.344;2023-08-24T05:06:44;2.60;;;2.40;;
13477;SDS011;12598;62.382;17.344;2023-08-24T05:07:46;2.80;;;2.22;;
13477;SDS011;12598;62.382;17.344;2023-08-24T05:08:48;4.55;;;2.10;;
13477;SDS011;12598;62.382;17.344;2023-08-24T05:09:50;2.22;;;2.03;;
13477;SDS011;12598;62.382;17.344;2023-08-24T05:10:54;4.05;;;2.20;;
13477;SDS011;12598;62.382;17.344;2023-08-24T05:11:56;2.55;;;2.35;;
13477;SDS011;12598;62.382;17.344;2023-08-24T05:12:59;3.90;;;2.85;;
13477;SDS011;12598;62.382;17.344;2023-08-24T05:14:01;2.78;;;2.15;;
13477;SDS011;12598;62.382;17.344;2023-08-24T05:15:03;2.95;;;1.70;;
13477;SDS011;12598;62.382;17.344;2023-08-24T05:16:05;2.10;;;2.00;;
13477;SDS011;12598;62.382;17.344;2023-08-24T05:17:07;2.08;;;1.85;;
13477;SDS011;12598;62.382;17.344;2023-08-24T05:18:09;2.38;;;2.17;;
13477;SDS011;12598;62.382;17.344;2023-08-24T05:19:11;2.10;;;1.90;;
13477;SDS011;12598;62.382;17.344;2023-08-24T05:20:13;2.97;;;2.50;;
13477;SDS011;12598;62.382;17.344;2023-08-24T05:21:16;3.92;;;2.40;;
13477;SDS011;12598;62.382;17.344;2023-08-24T05:22:18;3.13;;;2.20;;
13477;SDS011;12598;62.382;17.344;2023-08-24T05:23:20;2.10;;;2.00;;
13477;SDS011;12598;62.382;17.344;2023-08-24T05:24:22;2.30;;;2.10;;
13477;SDS011;12598;62.382;17.344;2023-08-24T05:25:24;2.78;;;1.70;;
13477;SDS011;12598;62.382;17.344;2023-08-24T05:26:26;2.88;;;2.25;;
13477;SDS011;12598;62.382;17.344;2023-08-24T05:27:28;2.28;;;2.08;;
13477;SDS011;12598;62.382;17.344;2023-08-24T05:28:30;2.67;;;2.00;;
13477;SDS011;12598;62.382;17.344;2023-08-24T05:29:33;3.08;;;2.38;;
13477;SDS011;12598;62.382;17.344;2023-08-24T05:30:35;2.10;;;1.90;;
13477;SDS011;12598;62.382;17.344;2023-08-24T05:31:37;2.28;;;1.90;;
13477;SDS011;12598;62.382;17.344;2023-08-24T05:32:39;2.15;;;2.00;;
13477;SDS011;12598;62.382;17.344;2023-08-24T05:33:41;2.55;;;2.05;;
13477;SDS011;12598;62.382;17.344;2023-08-24T05:34:43;2.50;;;2.30;;
13477;SDS011;12598;62.382;17.344;2023-08-24T05:35:47;2.30;;;2.13;;
13477;SDS011;12598;62.382;17.344;2023-08-24T05:36:50;2.30;;;2.10;;
13477;SDS011;12598;62.382;17.344;2023-08-24T05:37:52;2.15;;;1.90;;
13477;SDS011;12598;62.382;17.344;2023-08-24T05:38:54;2.60;;;2.40;;
13477;SDS011;12598;62.382;17.344;2023-08-24T05:40:06;2.50;;;2.30;;
13477;SDS011;12598;62.382;17.344;2023-08-24T05:41:09;2.90;;;2.30;;
13477;SDS011;12598;62.382;17.344;2023-08-24T05:42:11;2.63;;;1.90;;
13477;SDS011;12598;62.382;17.344;2023-08-24T05:43:12;2.45;;;2.20;;
13477;SDS011;12598;62.382;17.344;2023-08-24T05:44:14;3.47;;;2.22;;
13477;SDS011;12598;62.382;17.344;2023-08-24T05:45:18;2.30;;;2.10;;
13477;SDS011;12598;62.382;17.344;2023-08-24T05:46:20;2.75;;;2.47;;
13477;SDS011;12598;62.382;17.344;2023-08-24T05:47:22;2.15;;;1.90;;
13477;SDS011;12598;62.382;17.344;2023-08-24T05:48:24;2.88;;;2.40;;
13477;SDS011;12598;62.382;17.344;2023-08-24T05:49:26;2.58;;;2.25;;
13477;SDS011;12598;62.382;17.344;2023-08-24T05:50:29;2.33;;;2.13;;
13477;SDS011;12598;62.382;17.344;2023-08-24T05:51:31;2.78;;;2.20;;
13477;SDS011;12598;62.382;17.344;2023-08-24T05:52:33;2.45;;;2.25;;
13477;SDS011;12598;62.382;17.344;2023-08-24T05:53:35;2.38;;;2.17;;
13477;SDS011;12598;62.382;17.344;2023-08-24T05:54:37;5.43;;;1.90;;
13477;SDS011;12598;62.382;17.344;2023-08-24T05:55:39;2.42;;;2.20;;
13477;SDS011;12598;62.382;17.344;2023-08-24T05:56:41;2.53;;;2.25;;
13477;SDS011;12598;62.382;17.344;2023-08-24T05:57:43;3.08;;;2.72;;
13477;SDS011;12598;62.382;17.344;2023-08-24T05:58:45;2.50;;;2.15;;
13477;SDS011;12598;62.382;17.344;2023-08-24T05:59:47;2.40;;;2.08;;
13477;SDS011;12598;62.382;17.344;2023-08-24T06:00:54;3.10;;;2.30;;
13477;SDS011;12598;62.382;17.344;2023-08-24T06:01:57;2.40;;;2.20;;
13477;SDS011;12598;62.382;17.344;2023-08-24T06:02:59;2.60;;;2.40;;
13477;SDS011;12598;62.382;17.344;2023-08-24T06:04:01;4.93;;;2.40;;
13477;SDS011;12598;62.382;17.344;2023-08-24T06:05:03;2.40;;;2.20;;
13477;SDS011;12598;62.382;17.344;2023-08-24T06:06:06;2.20;;;2.00;;
13477;SDS011;12598;62.382;17.344;2023-08-24T06:07:10;3.10;;;2.28;;
13477;SDS011;12598;62.382;17.344;2023-08-24T06:08:12;3.25;;;2.20;;
13477;SDS011;12598;62.382;17.344;2023-08-24T06:09:14;2.35;;;2.15;;
13477;SDS011;12598;62.382;17.344;2023-08-24T06:10:16;5.57;;;2.33;;
13477;SDS011;12598;62.382;17.344;2023-08-24T06:11:18;3.67;;;2.33;;
13477;SDS011;12598;62.382;17.344;2023-08-24T06:12:20;2.65;;;2.20;;
13477;SDS011;12598;62.382;17.344;2023-08-24T06:13:22;2.40;;;2.20;;
13477;SDS011;12598;62.382;17.344;2023-08-24T06:14:24;2.80;;;2.55;;
13477;SDS011;12598;62.382;17.344;2023-08-24T06:15:26;3.53;;;2.63;;
13477;SDS011;12598;62.382;17.344;2023-08-24T06:16:29;2.90;;;2.33;;